sensor_id;sensor_type;location;lat;lon;timestamp;P1;durP1;ratioP1;P2;durP2;ratioP2
26271;SDS011;13997;48.902;12.472;2023-09-18T00:02:11;9.82;;;6.32;;
26271;SDS011;13997;48.902;12.472;2023-09-18T00:04:37;7.88;;;6.07;;
26271;SDS011;13997;48.902;12.472;2023-09-18T00:07:02;11.23;;;6.70;;
26271;SDS011;13997;48.902;12.472;2023-09-18T00:09:28;8.88;;;6.30;;
26271;SDS011;13997;48.902;12.472;2023-09-18T00:11:53;8.35;;;6.50;;
26271;SDS011;13997;48.902;12.472;2023-09-18T00:14:19;10.15;;;6.65;;
26271;SDS011;13997;48.902;12.472;2023-09-18T00:16:44;8.82;;;6.65;;
26271;SDS011;13997;48.902;12.472;2023-09-18T00:19:10;10.07;;;7.00;;
26271;SDS011;13997;48.902;12.472;2023-09-18T00:21:36;7.85;;;6.45;;
26271;SDS011;13997;48.902;12.472;2023-09-18T00:24:02;8.20;;;7.30;;
26271;SDS011;13997;48.902;12.472;2023-09-18T00:26:28;9.50;;;6.63;;
26271;SDS011;13997;48.902;12.472;2023-09-18T00:28:53;11.45;;;7.10;;
26271;SDS011;13997;48.902;12.472;2023-09-18T00:31:19;8.70;;;6.63;;
26271;SDS011;13997;48.902;12.472;2023-09-18T00:33:45;8.20;;;5.97;;
26271;SDS011;13997;48.902;12.472;2023-09-18T00:36:10;10.32;;;6.68;;
26271;SDS011;13997;48.902;12.472;2023-09-18T00:38:36;12.80;;;7.25;;
26271;SDS011;13997;48.902;12.472;2023-09-18T00:41:01;11.98;;;7.60;;
26271;SDS011;13997;48.902;12.472;2023-09-18T00:43:27;10.23;;;6.90;;
26271;SDS011;13997;48.902;12.472;2023-09-18T00:45:52;9.55;;;6.45;;
26271;SDS011;13997;48.902;12.472;2023-09-18T00:48:18;10.55;;;6.90;;
26271;SDS011;13997;48.902;12.472;2023-09-18T00:50:45;10.02;;;7.38;;
26271;SDS011;13997;48.902;12.472;2023-09-18T00:53:14;9.20;;;7.72;;
26271;SDS011;13997;48.902;12.472;2023-09-18T00:55:43;8.02;;;7.13;;
26271;SDS011;13997;48.902;12.472;2023-09-18T00:58:08;12.15;;;7.15;;
26271;SDS011;13997;48.902;12.472;2023-09-18T01:00:35;9.05;;;7.18;;
26271;SDS011;13997;48.902;12.472;2023-09-18T01:03:01;9.05;;;7.45;;
26271;SDS011;13997;48.902;12.472;2023-09-18T01:05:30;9.88;;;6.68;;
26271;SDS011;13997;48.902;12.472;2023-09-18T01:07:57;8.00;;;6.93;;
26271;SDS011;13997;48.902;12.472;2023-09-18T01:10:23;11.20;;;7.18;;
26271;SDS011;13997;48.902;12.472;2023-09-18T01:12:54;11.15;;;7.05;;
26271;SDS011;13997;48.902;12.472;2023-09-18T01:15:39;8.50;;;7.03;;
26271;SDS011;13997;48.902;12.472;2023-09-18T01:18:19;9.63;;;7.65;;
26271;SDS011;13997;48.902;12.472;2023-09-18T01:20:44;11.30;;;6.82;;
26271;SDS011;13997;48.902;12.472;2023-09-18T01:23:10;8.40;;;6.57;;
26271;SDS011;13997;48.902;12.472;2023-09-18T01:25:38;10.95;;;7.13;;
26271;SDS011;13997;48.902;12.472;2023-09-18T01:28:04;9.00;;;6.40;;
26271;SDS011;13997;48.902;12.472;2023-09-18T01:30:30;8.52;;;6.47;;
26271;SDS011;13997;48.902;12.472;2023-09-18T01:32:55;10.60;;;6.63;;
26271;SDS011;13997;48.902;12.472;2023-09-18T01:35:23;9.90;;;6.65;;
26271;SDS011;13997;48.902;12.472;2023-09-18T01:37:58;13.98;;;7.13;;
26271;SDS011;13997;48.902;12.472;2023-09-18T01:40:25;14.70;;;6.43;;
26271;SDS011;13997;48.902;12.472;2023-09-18T01:42:51;13.05;;;7.38;;
26271;SDS011;13997;48.902;12.472;2023-09-18T01:45:17;13.10;;;6.43;;
26271;SDS011;13997;48.902;12.472;2023-09-18T01:47:43;8.93;;;7.05;;
26271;SDS011;13997;48.902;12.472;2023-09-18T01:50:09;8.52;;;7.13;;
26271;SDS011;13997;48.902;12.472;2023-09-18T01:52:35;8.73;;;6.78;;
26271;SDS011;13997;48.902;12.472;2023-09-18T01:55:01;8.10;;;6.30;;
26271;SDS011;13997;48.902;12.472;2023-09-18T01:57:29;9.38;;;6.93;;
26271;SDS011;13997;48.902;12.472;2023-09-18T01:59:55;8.50;;;6.88;;
26271;SDS011;13997;48.902;12.472;2023-09-18T02:02:20;11.90;;;7.63;;
26271;SDS011;13997;48.902;12.472;2023-09-18T02:04:46;13.20;;;7.35;;
26271;SDS011;13997;48.902;12.472;2023-09-18T02:07:11;11.25;;;7.43;;
26271;SDS011;13997;48.902;12.472;2023-09-18T02:09:37;9.98;;;7.00;;
26271;SDS011;13997;48.902;12.472;2023-09-18T02:12:02;11.15;;;7.28;;
26271;SDS011;13997;48.902;12.472;2023-09-18T02:14:29;10.63;;;7.05;;
26271;SDS011;13997;48.902;12.472;2023-09-18T02:16:55;9.13;;;6.90;;
26271;SDS011;13997;48.902;12.472;2023-09-18T02:19:21;7.65;;;6.43;;
26271;SDS011;13997;48.902;12.472;2023-09-18T02:21:46;8.60;;;6.75;;
26271;SDS011;13997;48.902;12.472;2023-09-18T02:24:12;10.05;;;6.80;;
26271;SDS011;13997;48.902;12.472;2023-09-18T02:26:37;8.38;;;6.60;;
26271;SDS011;13997;48.902;12.472;2023-09-18T02:29:05;10.70;;;7.10;;
26271;SDS011;13997;48.902;12.472;2023-09-18T02:31:34;10.60;;;7.22;;
26271;SDS011;13997;48.902;12.472;2023-09-18T02:33:59;8.75;;;6.97;;
26271;SDS011;13997;48.902;12.472;2023-09-18T02:36:25;7.43;;;6.63;;
26271;SDS011;13997;48.902;12.472;2023-09-18T02:38:50;10.40;;;7.30;;
26271;SDS011;13997;48.902;12.472;2023-09-18T02:41:16;10.18;;;7.07;;
26271;SDS011;13997;48.902;12.472;2023-09-18T02:43:42;8.68;;;7.22;;
26271;SDS011;13997;48.902;12.472;2023-09-18T02:46:07;10.57;;;6.97;;
26271;SDS011;13997;48.902;12.472;2023-09-18T02:48:33;11.05;;;7.25;;
26271;SDS011;13997;48.902;12.472;2023-09-18T02:50:59;9.38;;;6.72;;
26271;SDS011;13997;48.902;12.472;2023-09-18T02:53:25;10.10;;;6.53;;
26271;SDS011;13997;48.902;12.472;2023-09-18T02:55:52;9.05;;;6.60;;
26271;SDS011;13997;48.902;12.472;2023-09-18T02:58:19;11.05;;;6.90;;
26271;SDS011;13997;48.902;12.472;2023-09-18T03:00:45;9.18;;;6.63;;
26271;SDS011;13997;48.902;12.472;2023-09-18T03:03:13;10.75;;;6.63;;
26271;SDS011;13997;48.902;12.472;2023-09-18T03:05:39;9.00;;;6.95;;
26271;SDS011;13997;48.902;12.472;2023-09-18T03:08:06;9.20;;;6.53;;
26271;SDS011;13997;48.902;12.472;2023-09-18T03:10:39;11.05;;;6.78;;
26271;SDS011;13997;48.902;12.472;2023-09-18T03:13:06;10.57;;;6.65;;
26271;SDS011;13997;48.902;12.472;2023-09-18T03:15:32;8.60;;;6.80;;
26271;SDS011;13997;48.902;12.472;2023-09-18T03:17:58;10.07;;;6.70;;
26271;SDS011;13997;48.902;12.472;2023-09-18T03:20:25;9.50;;;6.57;;
26271;SDS011;13997;48.902;12.472;2023-09-18T03:22:53;10.30;;;6.88;;
26271;SDS011;13997;48.902;12.472;2023-09-18T03:25:21;8.85;;;6.65;;
26271;SDS011;13997;48.902;12.472;2023-09-18T03:27:48;9.70;;;6.82;;
26271;SDS011;13997;48.902;12.472;2023-09-18T03:30:16;10.63;;;7.03;;
26271;SDS011;13997;48.902;12.472;2023-09-18T03:32:41;9.27;;;7.10;;
26271;SDS011;13997;48.902;12.472;2023-09-18T03:35:07;8.05;;;6.95;;
26271;SDS011;13997;48.902;12.472;2023-09-18T03:37:44;10.10;;;7.43;;
26271;SDS011;13997;48.902;12.472;2023-09-18T03:40:10;11.63;;;7.80;;
26271;SDS011;13997;48.902;12.472;2023-09-18T03:42:36;9.30;;;7.47;;
26271;SDS011;13997;48.902;12.472;2023-09-18T03:45:01;10.25;;;7.40;;
26271;SDS011;13997;48.902;12.472;2023-09-18T03:47:28;9.73;;;7.38;;
26271;SDS011;13997;48.902;12.472;2023-09-18T03:49:53;15.52;;;8.05;;
26271;SDS011;13997;48.902;12.472;2023-09-18T03:52:19;14.63;;;8.13;;
26271;SDS011;13997;48.902;12.472;2023-09-18T03:54:45;15.48;;;9.75;;
26271;SDS011;13997;48.902;12.472;2023-09-18T03:57:10;12.93;;;10.15;;
26271;SDS011;13997;48.902;12.472;2023-09-18T03:59:36;11.02;;;7.35;;
26271;SDS011;13997;48.902;12.472;2023-09-18T04:02:01;8.27;;;6.70;;
26271;SDS011;13997;48.902;12.472;2023-09-18T04:04:28;9.52;;;7.55;;
26271;SDS011;13997;48.902;12.472;2023-09-18T04:06:54;12.25;;;7.13;;
26271;SDS011;13997;48.902;12.472;2023-09-18T04:09:19;9.85;;;7.20;;
26271;SDS011;13997;48.902;12.472;2023-09-18T04:11:45;8.63;;;6.80;;
26271;SDS011;13997;48.902;12.472;2023-09-18T04:14:10;12.57;;;6.95;;
26271;SDS011;13997;48.902;12.472;2023-09-18T04:16:36;8.57;;;6.75;;
26271;SDS011;13997;48.902;12.472;2023-09-18T04:19:02;11.15;;;7.07;;
26271;SDS011;13997;48.902;12.472;2023-09-18T04:21:28;11.30;;;6.65;;
26271;SDS011;13997;48.902;12.472;2023-09-18T04:23:57;11.98;;;6.85;;
26271;SDS011;13997;48.902;12.472;2023-09-18T04:26:26;9.68;;;7.22;;
26271;SDS011;13997;48.902;12.472;2023-09-18T04:28:56;13.63;;;8.75;;
26271;SDS011;13997;48.902;12.472;2023-09-18T04:31:22;9.13;;;6.90;;
26271;SDS011;13997;48.902;12.472;2023-09-18T04:33:48;12.75;;;7.25;;
26271;SDS011;13997;48.902;12.472;2023-09-18T04:36:14;11.93;;;6.95;;
26271;SDS011;13997;48.902;12.472;2023-09-18T04:38:40;11.15;;;7.65;;
26271;SDS011;13997;48.902;12.472;2023-09-18T04:41:05;13.07;;;6.93;;
26271;SDS011;13997;48.902;12.472;2023-09-18T04:43:33;10.23;;;7.05;;
26271;SDS011;13997;48.902;12.472;2023-09-18T04:45:59;13.98;;;7.85;;
26271;SDS011;13997;48.902;12.472;2023-09-18T04:48:27;8.38;;;6.38;;
26271;SDS011;13997;48.902;12.472;2023-09-18T04:50:52;8.25;;;6.70;;
26271;SDS011;13997;48.902;12.472;2023-09-18T04:53:18;11.88;;;7.10;;
26271;SDS011;13997;48.902;12.472;2023-09-18T04:55:43;20.40;;;12.20;;
26271;SDS011;13997;48.902;12.472;2023-09-18T04:58:14;13.07;;;7.88;;
26271;SDS011;13997;48.902;12.472;2023-09-18T05:00:40;10.68;;;7.40;;
26271;SDS011;13997;48.902;12.472;2023-09-18T05:03:06;12.43;;;8.45;;
26271;SDS011;13997;48.902;12.472;2023-09-18T05:05:33;11.82;;;7.15;;
26271;SDS011;13997;48.902;12.472;2023-09-18T05:08:00;15.07;;;7.60;;
26271;SDS011;13997;48.902;12.472;2023-09-18T05:10:28;11.13;;;7.78;;
26271;SDS011;13997;48.902;12.472;2023-09-18T05:12:54;12.70;;;7.93;;
26271;SDS011;13997;48.902;12.472;2023-09-18T05:15:23;11.27;;;7.32;;
26271;SDS011;13997;48.902;12.472;2023-09-18T05:17:51;10.63;;;8.13;;
26271;SDS011;13997;48.902;12.472;2023-09-18T05:20:20;12.55;;;8.30;;
26271;SDS011;13997;48.902;12.472;2023-09-18T05:22:49;11.23;;;8.20;;
26271;SDS011;13997;48.902;12.472;2023-09-18T05:25:18;10.65;;;8.30;;
26271;SDS011;13997;48.902;12.472;2023-09-18T05:27:44;11.40;;;7.97;;
26271;SDS011;13997;48.902;12.472;2023-09-18T05:30:13;10.60;;;8.02;;
26271;SDS011;13997;48.902;12.472;2023-09-18T05:32:41;9.80;;;7.75;;
26271;SDS011;13997;48.902;12.472;2023-09-18T05:35:08;14.55;;;7.90;;
26271;SDS011;13997;48.902;12.472;2023-09-18T05:37:39;9.88;;;7.50;;
26271;SDS011;13997;48.902;12.472;2023-09-18T05:40:06;10.48;;;7.40;;
26271;SDS011;13997;48.902;12.472;2023-09-18T05:42:34;10.32;;;7.63;;
26271;SDS011;13997;48.902;12.472;2023-09-18T05:45:04;12.70;;;7.70;;
26271;SDS011;13997;48.902;12.472;2023-09-18T05:47:33;8.98;;;7.20;;
26271;SDS011;13997;48.902;12.472;2023-09-18T05:50:00;12.63;;;8.10;;
26271;SDS011;13997;48.902;12.472;2023-09-18T05:54:57;11.73;;;7.50;;
26271;SDS011;13997;48.902;12.472;2023-09-18T05:57:23;12.15;;;7.60;;
26271;SDS011;13997;48.902;12.472;2023-09-18T05:59:48;12.63;;;7.32;;
26271;SDS011;13997;48.902;12.472;2023-09-18T06:02:14;9.57;;;7.18;;
26271;SDS011;13997;48.902;12.472;2023-09-18T06:04:41;10.70;;;7.05;;
26271;SDS011;13997;48.902;12.472;2023-09-18T06:07:07;9.98;;;7.00;;
26271;SDS011;13997;48.902;12.472;2023-09-18T06:09:32;11.70;;;7.43;;
26271;SDS011;13997;48.902;12.472;2023-09-18T06:11:59;12.07;;;7.32;;
26271;SDS011;13997;48.902;12.472;2023-09-18T06:14:25;9.13;;;7.22;;
26271;SDS011;13997;48.902;12.472;2023-09-18T06:16:51;10.63;;;7.10;;
26271;SDS011;13997;48.902;12.472;2023-09-18T06:19:18;20.33;;;7.45;;
26271;SDS011;13997;48.902;12.472;2023-09-18T06:21:44;10.15;;;6.95;;
26271;SDS011;13997;48.902;12.472;2023-09-18T06:24:09;9.07;;;6.68;;
26271;SDS011;13997;48.902;12.472;2023-09-18T06:26:35;10.40;;;7.03;;
26271;SDS011;13997;48.902;12.472;2023-09-18T06:29:00;9.48;;;6.80;;
26271;SDS011;13997;48.902;12.472;2023-09-18T06:31:27;9.32;;;6.70;;
26271;SDS011;13997;48.902;12.472;2023-09-18T06:33:53;9.80;;;7.55;;
26271;SDS011;13997;48.902;12.472;2023-09-18T06:36:18;9.68;;;6.90;;
26271;SDS011;13997;48.902;12.472;2023-09-18T06:38:44;9.60;;;6.85;;
26271;SDS011;13997;48.902;12.472;2023-09-18T06:41:10;9.30;;;7.13;;
26271;SDS011;13997;48.902;12.472;2023-09-18T06:43:35;8.43;;;6.55;;
26271;SDS011;13997;48.902;12.472;2023-09-18T06:46:01;11.90;;;6.63;;
26271;SDS011;13997;48.902;12.472;2023-09-18T06:48:26;13.32;;;6.78;;
26271;SDS011;13997;48.902;12.472;2023-09-18T06:50:57;12.20;;;7.05;;
26271;SDS011;13997;48.902;12.472;2023-09-18T06:53:23;9.88;;;6.50;;
26271;SDS011;13997;48.902;12.472;2023-09-18T06:55:48;9.48;;;6.68;;
26271;SDS011;13997;48.902;12.472;2023-09-18T06:58:14;15.32;;;6.43;;
26271;SDS011;13997;48.902;12.472;2023-09-18T07:00:40;9.35;;;6.50;;
26271;SDS011;13997;48.902;12.472;2023-09-18T07:03:05;8.93;;;6.40;;
26271;SDS011;13997;48.902;12.472;2023-09-18T07:05:31;8.02;;;5.93;;
26271;SDS011;13997;48.902;12.472;2023-09-18T07:07:57;9.50;;;6.07;;
26271;SDS011;13997;48.902;12.472;2023-09-18T07:10:22;9.38;;;5.95;;
26271;SDS011;13997;48.902;12.472;2023-09-18T07:12:48;9.13;;;5.90;;
26271;SDS011;13997;48.902;12.472;2023-09-18T07:15:14;8.00;;;5.72;;
26271;SDS011;13997;48.902;12.472;2023-09-18T07:17:40;8.63;;;5.43;;
26271;SDS011;13997;48.902;12.472;2023-09-18T07:20:05;9.57;;;5.57;;
26271;SDS011;13997;48.902;12.472;2023-09-18T07:22:38;6.05;;;5.05;;
26271;SDS011;13997;48.902;12.472;2023-09-18T07:25:06;7.75;;;5.22;;
26271;SDS011;13997;48.902;12.472;2023-09-18T07:27:32;7.00;;;4.75;;
26271;SDS011;13997;48.902;12.472;2023-09-18T07:29:58;8.43;;;5.45;;
26271;SDS011;13997;48.902;12.472;2023-09-18T07:32:24;13.40;;;4.65;;
26271;SDS011;13997;48.902;12.472;2023-09-18T07:34:52;9.80;;;5.25;;
26271;SDS011;13997;48.902;12.472;2023-09-18T07:37:17;7.53;;;5.18;;
26271;SDS011;13997;48.902;12.472;2023-09-18T07:39:46;5.53;;;4.38;;
26271;SDS011;13997;48.902;12.472;2023-09-18T07:42:11;7.13;;;5.15;;
26271;SDS011;13997;48.902;12.472;2023-09-18T07:44:37;7.60;;;4.88;;
26271;SDS011;13997;48.902;12.472;2023-09-18T07:47:03;9.30;;;5.28;;
26271;SDS011;13997;48.902;12.472;2023-09-18T07:49:28;8.68;;;4.28;;
26271;SDS011;13997;48.902;12.472;2023-09-18T07:51:54;9.23;;;4.90;;
26271;SDS011;13997;48.902;12.472;2023-09-18T07:54:19;11.45;;;5.03;;
26271;SDS011;13997;48.902;12.472;2023-09-18T07:56:45;6.95;;;4.70;;
26271;SDS011;13997;48.902;12.472;2023-09-18T07:59:10;6.50;;;5.07;;
26271;SDS011;13997;48.902;12.472;2023-09-18T08:01:36;7.43;;;4.70;;
26271;SDS011;13997;48.902;12.472;2023-09-18T08:04:02;6.05;;;4.88;;
26271;SDS011;13997;48.902;12.472;2023-09-18T08:06:27;13.15;;;4.78;;
26271;SDS011;13997;48.902;12.472;2023-09-18T08:08:53;7.90;;;4.22;;
26271;SDS011;13997;48.902;12.472;2023-09-18T08:11:19;7.18;;;4.00;;
26271;SDS011;13997;48.902;12.472;2023-09-18T08:13:44;7.53;;;4.35;;
26271;SDS011;13997;48.902;12.472;2023-09-18T08:16:10;7.25;;;4.60;;
26271;SDS011;13997;48.902;12.472;2023-09-18T08:18:35;8.05;;;4.18;;
26271;SDS011;13997;48.902;12.472;2023-09-18T08:21:03;12.75;;;4.10;;
26271;SDS011;13997;48.902;12.472;2023-09-18T08:23:29;5.72;;;3.60;;
26271;SDS011;13997;48.902;12.472;2023-09-18T08:25:56;7.70;;;4.28;;
26271;SDS011;13997;48.902;12.472;2023-09-18T08:28:23;11.00;;;3.80;;
26271;SDS011;13997;48.902;12.472;2023-09-18T08:30:48;5.95;;;4.55;;
26271;SDS011;13997;48.902;12.472;2023-09-18T08:33:14;5.35;;;4.22;;
26271;SDS011;13997;48.902;12.472;2023-09-18T08:35:40;6.38;;;4.28;;
26271;SDS011;13997;48.902;12.472;2023-09-18T08:38:05;9.02;;;4.03;;
26271;SDS011;13997;48.902;12.472;2023-09-18T08:40:32;5.40;;;4.07;;
26271;SDS011;13997;48.902;12.472;2023-09-18T08:42:58;6.70;;;4.18;;
26271;SDS011;13997;48.902;12.472;2023-09-18T08:45:29;6.95;;;4.47;;
26271;SDS011;13997;48.902;12.472;2023-09-18T08:48:00;38.05;;;10.23;;
26271;SDS011;13997;48.902;12.472;2023-09-18T08:50:27;6.20;;;4.20;;
26271;SDS011;13997;48.902;12.472;2023-09-18T08:52:53;5.57;;;4.47;;
26271;SDS011;13997;48.902;12.472;2023-09-18T08:55:20;26.77;;;10.05;;
26271;SDS011;13997;48.902;12.472;2023-09-18T08:57:46;15.60;;;6.55;;
26271;SDS011;13997;48.902;12.472;2023-09-18T09:00:12;7.85;;;4.57;;
26271;SDS011;13997;48.902;12.472;2023-09-18T09:02:41;7.93;;;4.10;;
26271;SDS011;13997;48.902;12.472;2023-09-18T09:05:08;9.18;;;4.00;;
26271;SDS011;13997;48.902;12.472;2023-09-18T09:07:34;8.60;;;4.30;;
26271;SDS011;13997;48.902;12.472;2023-09-18T09:09:59;11.77;;;5.10;;
26271;SDS011;13997;48.902;12.472;2023-09-18T09:15:27;5.43;;;3.95;;
26271;SDS011;13997;48.902;12.472;2023-09-18T09:18:04;4.85;;;3.75;;
26271;SDS011;13997;48.902;12.472;2023-09-18T09:20:31;7.97;;;3.95;;
26271;SDS011;13997;48.902;12.472;2023-09-18T09:23:00;18.25;;;4.32;;
26271;SDS011;13997;48.902;12.472;2023-09-18T09:25:27;7.67;;;4.23;;
26271;SDS011;13997;48.902;12.472;2023-09-18T09:27:56;7.60;;;4.47;;
26271;SDS011;13997;48.902;12.472;2023-09-18T09:30:30;6.38;;;3.85;;
26271;SDS011;13997;48.902;12.472;2023-09-18T09:32:57;5.97;;;3.78;;
26271;SDS011;13997;48.902;12.472;2023-09-18T09:37:52;6.30;;;3.88;;
26271;SDS011;13997;48.902;12.472;2023-09-18T09:40:32;5.65;;;3.50;;
26271;SDS011;13997;48.902;12.472;2023-09-18T09:42:58;5.57;;;3.65;;
26271;SDS011;13997;48.902;12.472;2023-09-18T09:45:27;6.90;;;4.07;;
26271;SDS011;13997;48.902;12.472;2023-09-18T09:48:00;6.10;;;4.00;;
26271;SDS011;13997;48.902;12.472;2023-09-18T09:50:27;7.68;;;3.65;;
26271;SDS011;13997;48.902;12.472;2023-09-18T09:52:54;6.60;;;3.20;;
26271;SDS011;13997;48.902;12.472;2023-09-18T09:58:11;16.90;;;4.95;;
26271;SDS011;13997;48.902;12.472;2023-09-18T10:00:51;7.30;;;3.28;;
26271;SDS011;13997;48.902;12.472;2023-09-18T10:03:20;7.13;;;4.03;;
26271;SDS011;13997;48.902;12.472;2023-09-18T10:05:49;7.93;;;3.47;;
26271;SDS011;13997;48.902;12.472;2023-09-18T10:10:51;6.32;;;3.40;;
26271;SDS011;13997;48.902;12.472;2023-09-18T10:13:19;10.57;;;4.18;;
26271;SDS011;13997;48.902;12.472;2023-09-18T10:15:56;4.90;;;3.72;;
26271;SDS011;13997;48.902;12.472;2023-09-18T10:18:32;6.68;;;3.70;;
26271;SDS011;13997;48.902;12.472;2023-09-18T10:21:25;11.77;;;3.80;;
26271;SDS011;13997;48.902;12.472;2023-09-18T10:26:38;8.57;;;3.90;;
26271;SDS011;13997;48.902;12.472;2023-09-18T10:29:15;6.55;;;3.53;;
26271;SDS011;13997;48.902;12.472;2023-09-18T10:31:44;9.48;;;3.20;;
26271;SDS011;13997;48.902;12.472;2023-09-18T10:34:12;4.80;;;3.08;;
26271;SDS011;13997;48.902;12.472;2023-09-18T10:36:41;6.70;;;3.15;;
26271;SDS011;13997;48.902;12.472;2023-09-18T10:39:06;4.47;;;3.08;;
26271;SDS011;13997;48.902;12.472;2023-09-18T10:41:37;5.68;;;3.28;;
26271;SDS011;13997;48.902;12.472;2023-09-18T10:44:03;5.97;;;3.00;;
26271;SDS011;13997;48.902;12.472;2023-09-18T10:46:29;6.55;;;3.00;;
26271;SDS011;13997;48.902;12.472;2023-09-18T10:48:55;5.80;;;3.40;;
26271;SDS011;13997;48.902;12.472;2023-09-18T10:51:22;6.05;;;3.20;;
26271;SDS011;13997;48.902;12.472;2023-09-18T10:53:49;6.35;;;3.10;;
26271;SDS011;13997;48.902;12.472;2023-09-18T10:56:15;7.47;;;2.97;;
26271;SDS011;13997;48.902;12.472;2023-09-18T10:58:41;5.53;;;3.22;;
26271;SDS011;13997;48.902;12.472;2023-09-18T11:01:10;5.03;;;3.28;;
26271;SDS011;13997;48.902;12.472;2023-09-18T11:03:37;8.23;;;3.38;;
26271;SDS011;13997;48.902;12.472;2023-09-18T11:06:07;6.75;;;3.55;;
26271;SDS011;13997;48.902;12.472;2023-09-18T11:11:10;6.85;;;2.97;;
26271;SDS011;13997;48.902;12.472;2023-09-18T11:13:40;14.88;;;3.60;;
26271;SDS011;13997;48.902;12.472;2023-09-18T11:18:40;6.50;;;3.45;;
26271;SDS011;13997;48.902;12.472;2023-09-18T11:21:09;10.55;;;3.70;;
26271;SDS011;13997;48.902;12.472;2023-09-18T11:23:37;7.17;;;3.10;;
26271;SDS011;13997;48.902;12.472;2023-09-18T11:26:07;4.82;;;3.42;;
26271;SDS011;13997;48.902;12.472;2023-09-18T11:28:34;10.35;;;3.63;;
26271;SDS011;13997;48.902;12.472;2023-09-18T11:31:00;11.55;;;4.22;;
26271;SDS011;13997;48.902;12.472;2023-09-18T11:36:04;5.18;;;3.65;;
26271;SDS011;13997;48.902;12.472;2023-09-18T11:38:57;9.13;;;3.58;;
26271;SDS011;13997;48.902;12.472;2023-09-18T11:41:28;11.45;;;4.25;;
26271;SDS011;13997;48.902;12.472;2023-09-18T11:46:35;11.05;;;3.65;;
26271;SDS011;13997;48.902;12.472;2023-09-18T11:49:04;9.02;;;3.38;;
26271;SDS011;13997;48.902;12.472;2023-09-18T11:51:35;7.82;;;3.45;;
26271;SDS011;13997;48.902;12.472;2023-09-18T11:54:01;12.40;;;3.50;;
26271;SDS011;13997;48.902;12.472;2023-09-18T11:56:28;5.78;;;3.28;;
26271;SDS011;13997;48.902;12.472;2023-09-18T11:58:55;21.02;;;4.07;;
26271;SDS011;13997;48.902;12.472;2023-09-18T12:01:21;10.85;;;3.72;;
26271;SDS011;13997;48.902;12.472;2023-09-18T12:03:53;8.93;;;3.42;;
26271;SDS011;13997;48.902;12.472;2023-09-18T12:06:25;10.00;;;3.30;;
26271;SDS011;13997;48.902;12.472;2023-09-18T12:08:51;8.27;;;3.58;;
26271;SDS011;13997;48.902;12.472;2023-09-18T12:11:18;13.48;;;3.92;;
26271;SDS011;13997;48.902;12.472;2023-09-18T12:13:45;8.20;;;3.85;;
26271;SDS011;13997;48.902;12.472;2023-09-18T12:16:19;9.13;;;3.22;;
26271;SDS011;13997;48.902;12.472;2023-09-18T12:18:48;14.30;;;3.78;;
26271;SDS011;13997;48.902;12.472;2023-09-18T12:21:15;8.25;;;3.80;;
26271;SDS011;13997;48.902;12.472;2023-09-18T12:23:44;24.55;;;3.90;;
26271;SDS011;13997;48.902;12.472;2023-09-18T12:26:11;11.13;;;4.53;;
26271;SDS011;13997;48.902;12.472;2023-09-18T12:28:38;12.20;;;3.80;;
26271;SDS011;13997;48.902;12.472;2023-09-18T12:31:04;12.80;;;4.25;;
26271;SDS011;13997;48.902;12.472;2023-09-18T12:33:37;8.90;;;4.00;;
26271;SDS011;13997;48.902;12.472;2023-09-18T12:36:04;9.32;;;3.80;;
26271;SDS011;13997;48.902;12.472;2023-09-18T12:38:31;15.82;;;3.95;;
26271;SDS011;13997;48.902;12.472;2023-09-18T12:40:57;8.55;;;4.10;;
26271;SDS011;13997;48.902;12.472;2023-09-18T12:43:32;13.23;;;4.35;;
26271;SDS011;13997;48.902;12.472;2023-09-18T12:45:59;12.85;;;4.10;;
26271;SDS011;13997;48.902;12.472;2023-09-18T12:48:25;12.95;;;3.75;;
26271;SDS011;13997;48.902;12.472;2023-09-18T12:50:51;7.93;;;3.50;;
26271;SDS011;13997;48.902;12.472;2023-09-18T12:53:22;11.00;;;3.40;;
26271;SDS011;13997;48.902;12.472;2023-09-18T12:55:47;9.55;;;3.28;;
26271;SDS011;13997;48.902;12.472;2023-09-18T12:58:17;14.05;;;3.00;;
26271;SDS011;13997;48.902;12.472;2023-09-18T13:00:49;7.50;;;2.78;;
26271;SDS011;13997;48.902;12.472;2023-09-18T13:03:15;15.05;;;3.05;;
26271;SDS011;13997;48.902;12.472;2023-09-18T13:05:41;12.32;;;2.72;;
26271;SDS011;13997;48.902;12.472;2023-09-18T13:08:07;10.48;;;2.92;;
26271;SDS011;13997;48.902;12.472;2023-09-18T13:10:40;11.82;;;2.95;;
26271;SDS011;13997;48.902;12.472;2023-09-18T13:13:12;9.38;;;2.88;;
26271;SDS011;13997;48.902;12.472;2023-09-18T13:15:45;7.00;;;2.47;;
26271;SDS011;13997;48.902;12.472;2023-09-18T13:18:12;11.50;;;2.45;;
26271;SDS011;13997;48.902;12.472;2023-09-18T13:20:38;16.65;;;2.70;;
26271;SDS011;13997;48.902;12.472;2023-09-18T13:23:05;10.77;;;2.63;;
26271;SDS011;13997;48.902;12.472;2023-09-18T13:25:33;13.23;;;3.03;;
26271;SDS011;13997;48.902;12.472;2023-09-18T13:28:04;11.40;;;3.25;;
26271;SDS011;13997;48.902;12.472;2023-09-18T13:30:31;8.15;;;2.28;;
26271;SDS011;13997;48.902;12.472;2023-09-18T13:33:03;15.02;;;2.85;;
26271;SDS011;13997;48.902;12.472;2023-09-18T13:35:34;12.50;;;2.42;;
26271;SDS011;13997;48.902;12.472;2023-09-18T13:38:02;7.35;;;2.13;;
26271;SDS011;13997;48.902;12.472;2023-09-18T13:40:32;9.40;;;2.10;;
26271;SDS011;13997;48.902;12.472;2023-09-18T13:43:00;14.45;;;2.00;;
26271;SDS011;13997;48.902;12.472;2023-09-18T13:45:28;9.10;;;1.10;;
26271;SDS011;13997;48.902;12.472;2023-09-18T13:47:54;4.75;;;0.90;;
26271;SDS011;13997;48.902;12.472;2023-09-18T13:50:20;4.95;;;0.60;;
26271;SDS011;13997;48.902;12.472;2023-09-18T13:52:46;2.85;;;0.80;;
26271;SDS011;13997;48.902;12.472;2023-09-18T13:55:12;4.20;;;1.08;;
26271;SDS011;13997;48.902;12.472;2023-09-18T13:57:37;4.35;;;0.73;;
26271;SDS011;13997;48.902;12.472;2023-09-18T14:00:05;2.72;;;0.73;;
26271;SDS011;13997;48.902;12.472;2023-09-18T14:02:33;9.77;;;0.95;;
26271;SDS011;13997;48.902;12.472;2023-09-18T14:04:59;6.72;;;1.17;;
26271;SDS011;13997;48.902;12.472;2023-09-18T14:07:24;6.10;;;0.90;;
26271;SDS011;13997;48.902;12.472;2023-09-18T14:09:50;3.85;;;0.63;;
26271;SDS011;13997;48.902;12.472;2023-09-18T14:12:15;4.97;;;0.82;;
26271;SDS011;13997;48.902;12.472;2023-09-18T14:14:41;5.25;;;0.90;;
26271;SDS011;13997;48.902;12.472;2023-09-18T14:17:08;6.45;;;1.00;;
26271;SDS011;13997;48.902;12.472;2023-09-18T14:19:34;4.10;;;0.80;;
26271;SDS011;13997;48.902;12.472;2023-09-18T14:22:00;4.80;;;0.90;;
26271;SDS011;13997;48.902;12.472;2023-09-18T14:24:29;5.88;;;0.88;;
26271;SDS011;13997;48.902;12.472;2023-09-18T14:26:55;6.80;;;1.13;;
26271;SDS011;13997;48.902;12.472;2023-09-18T14:29:21;8.52;;;1.08;;
26271;SDS011;13997;48.902;12.472;2023-09-18T14:31:47;8.88;;;1.35;;
26271;SDS011;13997;48.902;12.472;2023-09-18T14:34:12;6.80;;;0.80;;
26271;SDS011;13997;48.902;12.472;2023-09-18T14:36:38;13.40;;;1.08;;
26271;SDS011;13997;48.902;12.472;2023-09-18T14:39:05;4.45;;;0.90;;
26271;SDS011;13997;48.902;12.472;2023-09-18T14:41:37;7.47;;;1.00;;
26271;SDS011;13997;48.902;12.472;2023-09-18T14:44:04;5.00;;;0.90;;
26271;SDS011;13997;48.902;12.472;2023-09-18T14:46:31;6.25;;;1.23;;
26271;SDS011;13997;48.902;12.472;2023-09-18T14:49:03;4.18;;;0.90;;
26271;SDS011;13997;48.902;12.472;2023-09-18T14:51:29;4.95;;;1.08;;
26271;SDS011;13997;48.902;12.472;2023-09-18T14:53:56;4.03;;;1.05;;
26271;SDS011;13997;48.902;12.472;2023-09-18T14:56:24;6.00;;;0.95;;